Time;durP1;ratioP1;P1;durP2;ratioP2;P2;SDS_P1;SDS_P2;PMS_P1;PMS_P2;Temp;Humidity;BMP_temperature;BMP_pressure;BME280_temperature;BME280_humidity;BME280_pressure;Samples;Min_cycle;Max_cycle;Signal;HPM_P1;HPM_P2
2022/07/31 00:03:27;;;;;;;9.70;4.53;;;;;;;17.98;97.25;100648.81;5128315;57;1141101;-65
2022/07/31 00:08:33;;;;;;;8.85;4.12;;;;;;;18.04;97.58;100652.16;5150335;57;1138980;-66
2022/07/31 00:13:39;;;;;;;11.03;4.75;;;;;;;18.10;97.83;100650.17;5150169;57;1139243;-66
2022/07/31 00:18:45;;;;;;;10.82;4.90;;;;;;;18.13;98.10;100657.88;5150582;57;1141084;-65
2022/07/31 00:23:51;;;;;;;9.75;4.97;;;;;;;18.21;97.91;100664.08;5152029;57;1141353;-67
2022/07/31 00:28:57;;;;;;;8.50;4.85;;;;;;;18.21;97.10;100658.72;5132012;56;1138936;-67
2022/07/31 00:34:03;;;;;;;6.87;4.72;;;;;;;18.20;97.31;100653.53;4910466;59;1139243;-66
2022/07/31 00:39:09;;;;;;;10.93;4.42;;;;;;;18.16;96.86;100647.69;5066379;58;1138911;-65
2022/07/31 00:44:15;;;;;;;7.53;4.95;;;;;;;18.14;97.00;100645.67;5111763;57;1141441;-64
2022/07/31 00:49:21;;;;;;;5.55;4.45;;;;;;;18.07;96.84;100635.78;5146324;57;1136929;-65
2022/07/31 00:54:27;;;;;;;6.62;5.08;;;;;;;17.91;96.88;100637.41;5146353;57;1136970;-66
2022/07/31 00:59:33;;;;;;;7.78;4.87;;;;;;;17.80;97.19;100636.89;5146481;57;1137111;-67
2022/07/31 01:04:39;;;;;;;5.28;4.50;;;;;;;17.74;97.38;100638.37;5116340;57;1137036;-66
2022/07/31 01:09:48;;;;;;;7.87;4.83;;;;;;;17.68;97.68;100639.53;5150751;57;1136902;-65
2022/07/31 01:14:57;;;;;;;7.90;4.40;;;;;;;17.63;97.99;100631.95;5150793;57;1137003;-65
2022/07/31 01:20:05;;;;;;;8.35;4.50;;;;;;;17.62;98.26;100633.45;5152023;57;1136912;-66
2022/07/31 01:25:51;;;;;;;17.53;5.10;;;;;;;17.58;98.46;100634.27;5154282;57;1137019;-63
2022/07/31 01:31:06;;;;;;;8.03;5.30;;;;;;;17.53;98.72;100633.92;5096389;56;1136897;-65
2022/07/31 01:36:13;;;;;;;;;;;;;;;17.47;99.95;100634.56;5070498;57;1138937;-64
2022/07/31 01:41:24;;;;;;;11.93;5.50;;;;;;;17.40;100.00;100635.72;5069641;58;976501;-65
2022/07/31 01:46:30;;;;;;;12.10;4.95;;;;;;;17.35;100.00;100631.34;5074914;57;1141071;-66
2022/07/31 01:51:38;;;;;;;4.57;4.17;;;;;;;17.34;100.00;100630.16;5126588;57;1143212;-66
2022/07/31 01:56:47;;;;;;;10.63;4.60;;;;;;;17.33;100.00;100618.62;5138065;57;1141085;-66
2022/07/31 02:01:55;;;;;;;9.28;4.83;;;;;;;17.32;100.00;100625.47;5010047;58;1143276;-64
2022/07/31 02:07:07;;;;;;;7.97;4.50;;;;;;;17.36;100.00;100611.62;5150694;57;1141071;-67
2022/07/31 02:12:13;;;;;;;12.77;5.10;;;;;;;17.33;100.00;100603.08;5150486;57;1141082;-67
2022/07/31 02:17:20;;;;;;;8.73;4.77;;;;;;;17.34;100.00;100602.09;5152611;57;1143372;-66
2022/07/31 02:22:34;;;;;;;18.32;4.15;;;;;;;17.34;100.00;100600.25;5116945;57;1141021;-64
2022/07/31 02:27:43;;;;;;;9.58;4.76;;;;;;;17.35;100.00;100591.23;5176284;56;1143243;-63
2022/07/31 02:32:51;;;;;;;12.93;4.50;;;;;;;17.31;100.00;100569.82;5151150;57;1141191;-64
2022/07/31 02:37:58;;;;;;;4.50;3.87;;;;;;;17.26;100.00;100572.66;5154841;57;1143314;-66
2022/07/31 02:43:05;;;;;;;9.87;4.37;;;;;;;17.29;100.00;100564.30;5144926;57;1141102;-66
2022/07/31 02:48:11;;;;;;;4.30;3.30;;;;;;;17.37;100.00;100564.34;5124897;57;1141058;-65
2022/07/31 02:53:20;;;;;;;6.50;3.57;;;;;;;17.36;100.00;100566.67;5124831;57;1141114;-65
2022/07/31 02:58:27;;;;;;;8.80;2.97;;;;;;;17.31;100.00;100562.30;5124683;57;1141254;-65
2022/07/31 03:03:34;;;;;;;14.57;5.27;;;;;;;17.23;100.00;100565.80;5145445;57;1141083;-67
2022/07/31 03:08:40;;;;;;;15.60;3.87;;;;;;;17.11;100.00;100562.55;5150392;57;1143181;-65
2022/07/31 03:13:47;;;;;;;10.07;3.73;;;;;;;17.00;100.00;100563.33;5152659;57;1143114;-65
2022/07/31 03:18:55;;;;;;;6.80;2.80;;;;;;;16.94;100.00;100563.48;5154854;57;1143116;-64
2022/07/31 03:24:03;;;;;;;9.10;4.30;;;;;;;16.90;100.00;100563.95;5154743;57;1141148;-66
2022/07/31 03:29:09;;;;;;;4.50;2.70;;;;;;;16.89;100.00;100569.80;5128265;57;1141078;-65
2022/07/31 03:34:16;;;;;;;5.57;2.67;;;;;;;16.93;100.00;100567.66;5080317;57;1141060;-65
2022/07/31 03:39:21;;;;;;;4.20;2.83;;;;;;;16.94;100.00;100567.50;5091776;57;1141055;-65
2022/07/31 03:44:31;;;;;;;7.37;3.50;;;;;;;16.91;100.00;100569.64;5070358;57;1141107;-65
2022/07/31 03:49:38;;;;;;;8.43;2.67;;;;;;;16.84;100.00;100572.93;5070081;57;1141110;-66
2022/07/31 03:54:44;;;;;;;8.00;2.60;;;;;;;16.81;100.00;100569.23;5071576;57;1141199;-65
2022/07/31 03:59:56;;;;;;;7.70;2.20;;;;;;;16.76;100.00;100568.89;5073273;57;1141045;-65
2022/07/31 04:05:03;;;;;;;7.37;2.90;;;;;;;16.75;100.00;100571.22;5124511;57;1139021;-65
2022/07/31 04:10:11;;;;;;;4.40;2.90;;;;;;;16.76;100.00;100572.90;5172475;56;1139005;-66
2022/07/31 04:15:17;;;;;;;9.67;2.50;;;;;;;16.71;100.00;100578.36;5127538;56;1138936;-66
2022/07/31 04:20:23;;;;;;;5.00;2.77;;;;;;;16.71;100.00;100574.35;5154873;57;1138996;-66
2022/07/31 04:25:29;;;;;;;5.93;2.90;;;;;;;16.73;100.00;100573.20;5170399;56;1139152;-67
2022/07/31 04:30:39;;;;;;;5.63;2.87;;;;;;;16.71;100.00;100579.20;5156980;56;1139163;-65
2022/07/31 04:35:46;;;;;;;8.10;2.70;;;;;;;16.76;100.00;100575.56;5049293;57;1138980;-66
2022/07/31 04:40:52;;;;;;;6.77;2.87;;;;;;;16.89;100.00;100579.14;5106983;57;1139252;-65
2022/07/31 04:45:58;;;;;;;4.70;2.60;;;;;;;16.92;100.00;100577.50;5108831;57;1139208;-66
2022/07/31 04:51:04;;;;;;;2.50;2.20;;;;;;;16.92;100.00;100576.66;5154357;57;1139041;-64
2022/07/31 05:01:34;;;;;;;2.87;2.33;;;;;;;16.80;100.00;100569.42;5102414;57;1141356;-65
2022/07/31 05:06:42;;;;;;;5.20;2.60;;;;;;;16.81;100.00;100565.72;5121536;57;1139206;-65
2022/07/31 05:11:49;;;;;;;12.80;2.50;;;;;;;16.81;100.00;100560.38;4979472;58;1137269;-66
2022/07/31 05:16:56;;;;;;;4.27;2.33;;;;;;;16.78;100.00;100562.06;4904834;59;1143049;-66
2022/07/31 05:22:03;;;;;;;5.53;3.33;;;;;;;16.79;100.00;100558.39;4910484;59;1143946;-65
2022/07/31 05:27:18;;;;;;;5.20;2.23;;;;;;;16.87;100.00;100559.27;4968152;58;1141107;-66
2022/07/31 05:32:24;;;;;;;7.90;2.53;;;;;;;16.87;100.00;100563.27;4983614;58;1141063;-65
2022/07/31 05:37:32;;;;;;;5.37;2.13;;;;;;;16.86;100.00;100562.09;4946602;59;1141099;-66
2022/07/31 05:42:38;;;;;;;12.77;2.67;;;;;;;16.85;100.00;100559.08;4979230;58;1141191;-66
2022/07/31 05:47:52;;;;;;;5.90;2.13;;;;;;;16.98;100.00;100565.32;4894285;60;1143309;-65
2022/07/31 05:52:58;;;;;;;6.10;2.73;;;;;;;17.02;100.00;100568.02;4980939;59;1141258;-66
2022/07/31 05:58:05;;;;;;;3.40;1.83;;;;;;;17.01;100.00;100566.34;4956327;59;1141191;-65
2022/07/31 06:03:11;;;;;;;3.13;1.90;;;;;;;17.10;100.00;100572.92;4914988;59;1141319;-66
2022/07/31 06:08:35;;;;;;;4.42;2.22;;;;;;;17.23;100.00;100565.80;4935075;59;1141159;-64
2022/07/31 06:13:42;;;;;;;13.20;2.60;;;;;;;17.26;100.00;100565.48;4937891;59;1141020;-64
2022/07/31 06:18:49;;;;;;;9.17;3.60;;;;;;;17.32;100.00;100574.67;4933395;58;1143192;-64
2022/07/31 06:23:56;;;;;;;3.87;2.20;;;;;;;17.36;100.00;100572.02;5018802;56;1141054;-65
2022/07/31 06:29:04;;;;;;;7.60;2.60;;;;;;;17.39;100.00;100572.55;5110935;56;1141076;-65
2022/07/31 06:34:10;;;;;;;3.94;2.64;;;;;;;17.51;100.00;100568.56;5105233;57;1141022;-66
2022/07/31 06:39:19;;;;;;;7.43;2.77;;;;;;;17.60;100.00;100565.41;5107090;57;1141075;-65
2022/07/31 06:44:32;;;;;;;5.07;2.63;;;;;;;17.63;100.00;100571.77;5115633;56;1140995;-66
2022/07/31 06:49:46;;;;;;;4.77;1.90;;;;;;;17.63;100.00;100582.97;5090784;57;1141076;-66
2022/07/31 06:54:52;;;;;;;4.97;2.00;;;;;;;17.56;100.00;100578.29;5123600;56;1141058;-65
2022/07/31 06:59:57;;;;;;;7.97;2.37;;;;;;;17.48;100.00;100584.94;5137276;56;1141049;-66
2022/07/31 07:05:04;;;;;;;9.53;3.50;;;;;;;17.47;100.00;100585.92;5069079;57;1141102;-65
2022/07/31 07:10:10;;;;;;;4.45;1.98;;;;;;;17.58;100.00;100578.09;5055715;57;1141132;-66
2022/07/31 07:15:26;;;;;;;3.17;2.47;;;;;;;17.61;100.00;100576.44;5015406;58;1141122;-64
2022/07/31 07:20:32;;;;;;;5.65;2.27;;;;;;;17.63;100.00;100578.45;5038541;57;1141077;-64
2022/07/31 07:25:39;;;;;;;3.80;2.17;;;;;;;17.70;100.00;100576.02;5038877;58;1139050;-64
2022/07/31 07:30:46;;;;;;;6.04;2.38;;;;;;;17.75;100.00;100581.19;5051680;57;1139135;-65
2022/07/31 07:35:52;;;;;;;3.90;1.90;;;;;;;17.83;100.00;100568.34;5107492;57;1139027;-66
2022/07/31 07:40:58;;;;;;;5.80;2.02;;;;;;;17.97;100.00;100570.38;5101739;58;1139003;-67
2022/07/31 07:46:05;;;;;;;3.55;2.35;;;;;;;18.11;100.00;100572.89;5052234;57;1138926;-66
2022/07/31 07:51:12;;;;;;;2.02;1.92;;;;;;;18.22;100.00;100573.89;5071515;57;1138955;-66
2022/07/31 07:56:31;;;;;;;3.83;2.12;;;;;;;18.38;100.00;100581.92;5050444;56;1139103;-67
2022/07/31 08:01:44;;;;;;;3.10;1.65;;;;;;;18.48;100.00;100571.90;5101878;57;1139191;-65
2022/07/31 08:06:55;;;;;;;5.42;1.70;;;;;;;18.58;100.00;100578.41;5127236;56;1138961;-66
2022/07/31 08:12:05;;;;;;;1.47;1.25;;;;;;;18.60;100.00;100585.80;5097285;57;1139016;-66
2022/07/31 08:17:29;;;;;;;6.37;1.87;;;;;;;18.66;100.00;100578.41;5175613;57;21229;-66
2022/07/31 08:22:35;;;;;;;4.78;2.08;;;;;;;18.85;100.00;100577.21;5153120;57;1137532;-64
2022/07/31 08:27:41;;;;;;;4.35;1.82;;;;;;;18.98;100.00;100579.69;5131028;57;1141298;-66
2022/07/31 08:32:47;;;;;;;11.77;1.50;;;;;;;19.02;100.00;100576.17;5100584;57;1141388;-64
2022/07/31 08:37:55;;;;;;;1.85;1.30;;;;;;;18.96;100.00;100586.22;5132229;57;1143027;-67
2022/07/31 08:43:00;;;;;;;4.50;2.10;;;;;;;19.00;100.00;100580.86;5106481;57;1141175;-67
2022/07/31 08:48:09;;;;;;;14.18;1.65;;;;;;;19.06;100.00;100578.00;5111976;57;1141068;-66
2022/07/31 08:53:18;;;;;;;10.18;1.95;;;;;;;19.19;100.00;100576.95;5090525;57;1143227;-67
2022/07/31 08:58:25;;;;;;;3.95;2.30;;;;;;;19.33;100.00;100576.22;5100348;57;1143252;-66
2022/07/31 09:03:31;;;;;;;5.65;1.87;;;;;;;19.42;100.00;100565.77;5118647;57;1141470;-66
2022/07/31 09:08:39;;;;;;;2.10;1.50;;;;;;;19.34;100.00;100571.19;5117192;57;1141634;-65
2022/07/31 09:13:58;;;;;;;2.62;1.65;;;;;;;19.39;100.00;100574.20;5121704;57;1141629;-65
2022/07/31 09:19:05;;;;;;;4.22;1.95;;;;;;;19.49;100.00;100562.77;5097341;57;1141568;-65
2022/07/31 09:24:15;;;;;;;2.60;1.30;;;;;;;19.72;100.00;100557.42;5038977;58;1141021;-65
2022/07/31 09:29:26;;;;;;;1.72;1.10;;;;;;;19.96;100.00;100549.73;5067427;57;1141041;-65
2022/07/31 09:34:31;;;;;;;12.25;1.62;;;;;;;20.10;97.91;100548.95;5042134;57;1141037;-66
2022/07/31 09:39:42;;;;;;;3.22;1.35;;;;;;;20.26;99.41;100539.42;5037983;57;1141371;-66
2022/07/31 09:45:17;;;;;;;9.43;2.10;;;;;;;20.59;100.00;100541.84;5078303;56;1138995;-66
2022/07/31 09:50:24;;;;;;;3.17;1.30;;;;;;;20.97;99.49;100539.89;5121742;57;1141106;-65
2022/07/31 09:55:30;;;;;;;2.80;1.25;;;;;;;21.21;93.78;100524.86;5121885;57;1139011;-64
2022/07/31 10:00:38;;;;;;;8.00;1.20;;;;;;;21.32;90.45;100527.06;5147854;57;1139050;-67
2022/07/31 10:05:46;;;;;;;1.57;1.25;;;;;;;21.67;90.46;100529.44;5150502;57;1138973;-66
2022/07/31 10:10:53;;;;;;;3.20;1.22;;;;;;;21.67;90.46;100529.44;5150401;57;1139060;-67
2022/07/31 10:16:04;;;;;;;2.27;1.10;;;;;;;21.86;88.07;100525.77;5149499;57;1139281;-67
2022/07/31 10:21:17;;;;;;;4.80;1.20;;;;;;;;;;5147391;57;1137170;-65
2022/07/31 10:26:27;;;;;;;1.57;0.85;;;;;;;22.21;86.40;100529.45;5154496;57;816115;-66
2022/07/31 10:31:34;;;;;;;1.57;0.98;;;;;;;22.35;81.41;100522.63;5091742;57;1134984;-67
2022/07/31 10:36:43;;;;;;;2.10;1.35;;;;;;;22.52;81.88;100519.64;5071059;57;1137016;-67
2022/07/31 10:42:12;;;;;;;1.50;1.40;;;;;;;22.66;78.64;100512.80;5072865;57;1136875;-65
2022/07/31 10:47:19;;;;;;;6.87;1.40;;;;;;;22.87;79.09;100506.53;5070138;58;1136949;-66
2022/07/31 10:52:39;;;;;;;2.92;1.20;;;;;;;23.11;76.84;100511.41;5069199;58;1136856;-65
2022/07/31 10:57:50;;;;;;;1.85;0.78;;;;;;;23.29;76.15;100523.53;5076047;57;1136922;-66
2022/07/31 11:03:00;;;;;;;1.57;1.10;;;;;;;23.42;73.64;100511.42;5129872;57;1134941;-64
2022/07/31 11:08:08;;;;;;;1.60;1.22;;;;;;;23.50;73.83;100513.44;5128841;57;1139098;-64
2022/07/31 11:13:25;;;;;;;2.47;0.70;;;;;;;23.59;69.46;100510.06;5078579;57;1139183;-65
2022/07/31 11:18:32;;;;;;;3.25;1.10;;;;;;;23.73;66.36;100506.34;5128083;57;1139215;-66
2022/07/31 11:23:41;;;;;;;7.03;1.00;;;;;;;23.71;67.69;100504.37;5129256;57;1138967;-67
2022/07/31 11:28:47;;;;;;;3.10;0.80;;;;;;;23.87;68.16;100502.31;5114485;57;1139027;-66
2022/07/31 11:33:53;;;;;;;4.45;1.00;;;;;;;24.10;66.40;100503.59;5051205;57;1139217;-66
2022/07/31 11:38:59;;;;;;;4.03;0.93;;;;;;;24.32;67.65;100493.41;5049932;58;1138998;-67
2022/07/31 11:44:05;;;;;;;1.75;0.90;;;;;;;24.53;63.75;100490.49;5092529;57;1139047;-66
2022/07/31 11:49:16;;;;;;;2.55;1.12;;;;;;;24.74;61.60;100492.13;5133359;57;1139027;-66
2022/07/31 11:54:25;;;;;;;9.23;0.95;;;;;;;25.00;64.97;100492.59;5133480;57;1139084;-65
2022/07/31 11:59:36;;;;;;;1.27;0.88;;;;;;;25.35;63.99;100493.07;5133724;57;1138930;-67
2022/07/31 12:04:42;;;;;;;1.57;1.10;;;;;;;25.62;62.21;100482.11;5129244;57;1138981;-65
2022/07/31 12:09:48;;;;;;;4.15;0.90;;;;;;;25.86;59.87;100475.36;5129273;57;1139003;-64
2022/07/31 12:14:54;;;;;;;1.80;0.90;;;;;;;26.11;62.06;100484.88;5129640;57;1139427;-66
2022/07/31 12:20:08;;;;;;;0.75;0.70;;;;;;;26.23;60.44;100475.49;5129827;57;1138926;-65
2022/07/31 12:25:15;;;;;;;1.00;0.82;;;;;;;26.38;59.35;100472.47;5129719;57;1139288;-67
2022/07/31 12:30:27;;;;;;;2.35;1.07;;;;;;;26.49;54.53;100464.41;5127080;57;1138931;-66
2022/07/31 12:35:40;;;;;;;3.98;1.82;;;;;;;26.55;55.54;100459.98;5103358;57;1139126;-66
2022/07/31 12:40:47;;;;;;;4.55;0.72;;;;;;;26.71;56.57;100459.92;5156169;56;1138965;-65
2022/07/31 12:45:53;;;;;;;2.80;1.20;;;;;;;26.76;52.17;100460.87;5082276;56;1139013;-65
2022/07/31 12:50:59;;;;;;;11.30;1.35;;;;;;;26.74;50.04;100471.66;5072679;57;1139000;-65
2022/07/31 12:56:04;;;;;;;6.50;1.07;;;;;;;26.85;52.54;100470.39;5105184;57;1141110;-65
2022/07/31 13:01:10;;;;;;;1.40;0.47;;;;;;;26.91;48.71;100469.47;5128050;57;1138797;-65
2022/07/31 13:06:16;;;;;;;4.47;0.90;;;;;;;26.99;51.18;100464.31;5087581;57;1139039;-67
2022/07/31 13:11:24;;;;;;;10.05;0.65;;;;;;;27.07;48.94;100458.55;5094846;57;1139007;-62
2022/07/31 13:16:30;;;;;;;5.05;1.10;;;;;;;27.10;50.22;100459.45;5117352;57;1141380;-64
2022/07/31 13:21:36;;;;;;;4.70;1.15;;;;;;;27.25;50.26;100449.55;5117436;57;1138998;-65
2022/07/31 13:26:44;;;;;;;4.13;0.90;;;;;;;27.34;48.83;100442.76;5091624;57;1139298;-65
2022/07/31 13:31:49;;;;;;;1.12;0.70;;;;;;;27.40;48.68;100447.25;5094764;57;1139185;-61
2022/07/31 13:36:56;;;;;;;9.50;1.50;;;;;;;27.48;48.77;100435.24;5179318;56;1136909;-63
2022/07/31 13:42:04;;;;;;;2.87;1.20;;;;;;;27.56;48.24;100430.82;5196603;56;1137044;-62
2022/07/31 13:47:09;;;;;;;2.37;0.82;;;;;;;27.69;46.96;100425.20;5062748;57;1136822;-64
2022/07/31 13:52:15;;;;;;;1.02;0.65;;;;;;;27.83;46.19;100429.89;5103524;57;1137163;-64
2022/07/31 13:57:21;;;;;;;0.70;0.70;;;;;;;27.94;46.83;100427.75;5121918;57;1136909;-65
2022/07/31 14:02:26;;;;;;;3.90;0.80;;;;;;;28.00;43.37;100421.35;5116279;57;1137226;-66
2022/07/31 14:07:34;;;;;;;5.65;0.98;;;;;;;27.95;40.72;100417.17;5150583;57;1137141;-65
2022/07/31 14:12:40;;;;;;;4.00;0.78;;;;;;;27.87;43.38;100417.50;5150551;57;1136899;-65
2022/07/31 14:17:46;;;;;;;0.95;0.70;;;;;;;27.94;43.43;100410.91;5150562;57;1136901;-67
2022/07/31 14:22:53;;;;;;;4.33;0.98;;;;;;;28.04;43.68;100404.88;5150641;57;1136913;-64
2022/07/31 14:28:00;;;;;;;5.35;1.27;;;;;;;28.12;43.59;100411.30;5099015;57;1136945;-66
2022/07/31 14:33:06;;;;;;;2.27;0.60;;;;;;;28.21;42.48;100409.93;5100729;56;1136871;-65
2022/07/31 14:38:11;;;;;;;1.20;0.90;;;;;;;28.17;42.01;100391.56;5074112;57;1136914;-66
2022/07/31 14:43:23;;;;;;;2.30;0.80;;;;;;;28.31;40.04;100392.47;5076807;57;1136912;-67
2022/07/31 14:48:27;;;;;;;5.92;0.70;;;;;;;28.26;41.76;100388.27;5159290;56;1136927;-67
2022/07/31 14:53:34;;;;;;;6.58;1.05;;;;;;;28.25;39.36;100389.36;5155007;56;1137005;-65
2022/07/31 14:58:40;;;;;;;0.80;0.80;;;;;;;28.16;42.05;100381.22;5154636;56;1136991;-64
2022/07/31 15:03:46;;;;;;;7.53;0.98;;;;;;;28.12;41.08;100382.75;5149559;57;1134907;-65
2022/07/31 15:08:53;;;;;;;11.26;1.10;;;;;;;28.17;40.82;100380.16;5155058;57;1138946;-67
2022/07/31 15:14:00;;;;;;;2.88;0.88;;;;;;;28.23;42.38;100383.33;5071991;57;1141252;-66
2022/07/31 15:19:05;;;;;;;2.67;0.90;;;;;;;28.28;41.63;100377.98;5154791;57;1138876;-65
2022/07/31 15:24:11;;;;;;;4.30;1.10;;;;;;;28.25;40.45;100377.12;5154659;57;1138905;-65
2022/07/31 15:29:16;;;;;;;8.10;1.40;;;;;;;28.21;39.96;100365.05;5148142;57;1138952;-64
2022/07/31 15:34:22;;;;;;;7.35;1.47;;;;;;;28.23;41.29;100369.73;5079964;57;1138903;-67
2022/07/31 15:39:28;;;;;;;2.02;0.93;;;;;;;28.22;40.15;100371.32;5078844;57;1139227;-66
2022/07/31 15:44:34;;;;;;;3.50;1.35;;;;;;;28.15;41.07;100379.56;5159339;56;1138846;-64
2022/07/31 15:49:39;;;;;;;4.15;1.00;;;;;;;28.13;40.62;100370.80;5118859;57;1138246;-64
2022/07/31 15:54:52;;;;;;;5.72;1.17;;;;;;;28.14;41.21;100373.82;5110120;57;1138974;-66
2022/07/31 15:59:55;;;;;;;9.08;1.50;;;;;;;28.13;40.58;100369.45;5106275;57;1138980;-65
2022/07/31 16:05:00;;;;;;;3.02;1.20;;;;;;;28.10;40.65;100377.27;5070916;57;1139002;-67
2022/07/31 16:10:07;;;;;;;5.20;1.72;;;;;;;28.07;40.77;100376.38;5049152;58;1139089;-65
2022/07/31 16:15:13;;;;;;;1.57;1.00;;;;;;;27.95;40.05;100375.86;5049640;58;1139092;-65
2022/07/31 16:20:21;;;;;;;3.12;0.80;;;;;;;27.85;40.91;100380.21;5091494;57;1138980;-67
2022/07/31 16:25:29;;;;;;;10.20;0.93;;;;;;;27.80;38.84;100374.67;5104587;56;1139006;-65
2022/07/31 16:30:35;;;;;;;7.42;2.17;;;;;;;27.73;39.86;100368.51;5132842;56;1140982;-65
2022/07/31 16:35:41;;;;;;;9.35;2.58;;;;;;;27.71;39.64;100360.59;5083845;57;1138921;-65
2022/07/31 16:40:47;;;;;;;2.60;0.90;;;;;;;27.63;40.46;100372.64;5119012;57;1138944;-65
2022/07/31 16:45:53;;;;;;;0.70;0.70;;;;;;;27.55;38.91;100374.83;5095442;57;1138957;-63
2022/07/31 16:51:00;;;;;;;7.53;0.97;;;;;;;27.52;40.15;100365.78;5119453;56;1139019;-62
2022/07/31 16:56:05;;;;;;;5.10;1.22;;;;;;;27.51;40.41;100369.02;5158074;56;1139035;-62
2022/07/31 17:01:12;;;;;;;4.45;0.93;;;;;;;27.42;39.98;100364.17;5137367;56;1138939;-63
2022/07/31 17:06:17;;;;;;;9.25;1.42;;;;;;;27.33;40.01;100366.41;5081417;57;1139269;-64
2022/07/31 17:11:23;;;;;;;12.82;1.00;;;;;;;27.21;39.47;100373.14;5068549;57;1138990;-63
2022/07/31 17:16:29;;;;;;;1.17;0.70;;;;;;;27.15;40.18;100369.19;5083307;57;1141156;-64
2022/07/31 17:21:44;;;;;;;2.47;1.22;;;;;;;26.99;39.24;100367.94;5080534;57;1138848;-65
2022/07/31 17:26:50;;;;;;;7.37;1.12;;;;;;;26.90;40.26;100370.62;5081698;57;1139183;-64
2022/07/31 17:31:56;;;;;;;5.15;1.02;;;;;;;26.81;40.07;100368.77;5078126;57;1138914;-65
2022/07/31 17:37:03;;;;;;;2.17;0.90;;;;;;;26.77;41.11;100372.16;5089379;57;1138967;-64
2022/07/31 17:42:09;;;;;;;0.98;0.95;;;;;;;26.64;40.61;100377.23;5073263;57;1139308;-65
2022/07/31 17:47:17;;;;;;;7.97;0.93;;;;;;;26.49;40.49;100378.14;5078916;57;1138992;-65
2022/07/31 17:52:23;;;;;;;19.92;1.90;;;;;;;26.41;40.97;100377.10;5086688;57;1138942;-65
2022/07/31 17:57:29;;;;;;;2.15;1.10;;;;;;;26.30;41.46;100380.54;5086199;57;1141376;-66
2022/07/31 18:02:34;;;;;;;4.85;1.40;;;;;;;26.17;41.58;100382.84;5089390;57;1139185;-67
2022/07/31 18:07:40;;;;;;;8.75;1.62;;;;;;;26.04;41.57;100379.73;5121300;57;1139127;-66
2022/07/31 18:12:47;;;;;;;7.28;0.88;;;;;;;25.94;41.73;100392.98;5145361;57;1138880;-65
2022/07/31 18:17:53;;;;;;;6.83;1.40;;;;;;;25.82;42.40;100398.80;5142229;57;1136902;-63
2022/07/31 18:22:59;;;;;;;6.85;1.40;;;;;;;25.63;43.05;100401.98;5148674;57;1137009;-64
2022/07/31 18:28:07;;;;;;;14.55;1.65;;;;;;;25.37;44.14;100404.83;5135589;56;1136993;-65
2022/07/31 18:33:13;;;;;;;11.12;1.80;;;;;;;25.18;45.48;100409.34;5068639;57;1139352;-66
2022/07/31 18:38:18;;;;;;;8.15;1.55;;;;;;;24.97;46.31;100414.53;5134488;56;1139291;-63
2022/07/31 18:43:24;;;;;;;5.45;2.37;;;;;;;24.78;47.73;100412.70;5144289;57;1137116;-66
2022/07/31 18:48:30;;;;;;;2.40;1.62;;;;;;;24.58;49.00;100414.67;5146400;57;1137062;-64
2022/07/31 18:53:35;;;;;;;9.53;3.30;;;;;;;24.36;50.24;100418.14;5140113;57;1137050;-66
2022/07/31 18:58:43;;;;;;;3.22;1.77;;;;;;;24.20;51.56;100418.03;5126539;57;1136931;-65
2022/07/31 19:03:49;;;;;;;3.45;1.70;;;;;;;24.06;51.95;100426.69;5122779;57;1136972;-63
2022/07/31 19:08:55;;;;;;;4.80;2.25;;;;;;;23.99;52.42;100431.77;5092122;57;1136986;-66
2022/07/31 19:14:01;;;;;;;6.28;2.70;;;;;;;23.92;52.83;100438.53;5138878;57;1136935;-66
2022/07/31 19:19:06;;;;;;;3.95;2.10;;;;;;;23.78;53.28;100443.10;5148282;56;1137080;-65
2022/07/31 19:24:13;;;;;;;2.87;2.50;;;;;;;23.76;53.59;100450.58;5125156;56;1136899;-66
2022/07/31 19:29:19;;;;;;;5.30;1.92;;;;;;;23.64;53.90;100453.58;5178835;56;1137170;-63
2022/07/31 19:34:25;;;;;;;4.12;1.45;;;;;;;23.59;54.25;100451.17;5068690;57;1136970;-66
2022/07/31 19:39:31;;;;;;;6.17;2.92;;;;;;;23.57;54.80;100455.94;5102499;57;1136944;-63
2022/07/31 19:44:36;;;;;;;21.52;12.88;;;;;;;23.51;55.18;100458.96;5113931;57;1136905;-66
2022/07/31 19:49:43;;;;;;;4.85;2.35;;;;;;;23.32;54.95;100458.36;5126641;57;1139212;-64
2022/07/31 19:54:49;;;;;;;2.30;2.10;;;;;;;23.29;55.48;100466.85;5127707;57;1134999;-65
2022/07/31 19:59:54;;;;;;;15.75;10.28;;;;;;;23.17;55.54;100459.87;5124275;57;1138954;-64
2022/07/31 20:05:00;;;;;;;18.63;10.20;;;;;;;23.01;55.96;100461.56;5129340;56;1143318;-65
2022/07/31 20:10:09;;;;;;;8.07;5.20;;;;;;;22.85;56.53;100460.56;5079585;57;1143103;-65
2022/07/31 20:15:15;;;;;;;10.85;3.65;;;;;;;22.83;57.18;100463.97;5130046;57;1138926;-65
2022/07/31 20:20:20;;;;;;;15.60;8.18;;;;;;;22.77;57.64;100470.98;5047635;57;1141109;-66
2022/07/31 20:25:26;;;;;;;21.12;11.25;;;;;;;22.72;57.91;100476.12;5141263;56;1141022;-66
2022/07/31 20:30:31;;;;;;;24.47;9.93;;;;;;;22.56;58.11;100466.49;5129936;57;1143170;-64
2022/07/31 20:35:38;;;;;;;13.40;7.58;;;;;;;22.50;58.62;100463.23;5144165;56;1141111;-65
2022/07/31 20:40:45;;;;;;;15.45;5.42;;;;;;;22.46;59.02;100461.95;5133538;56;1141279;-65
2022/07/31 20:45:51;;;;;;;8.25;4.40;;;;;;;22.39;59.34;100471.36;5120955;57;1141336;-64
2022/07/31 20:50:59;;;;;;;7.62;3.70;;;;;;;22.27;59.63;100472.10;5141705;57;1139107;-65
2022/07/31 20:56:05;;;;;;;16.07;4.60;;;;;;;22.17;60.11;100472.94;5148354;57;1139004;-66
2022/07/31 21:01:11;;;;;;;16.15;3.80;;;;;;;22.08;60.43;100473.09;5147475;57;1140703;-66
2022/07/31 21:06:19;;;;;;;11.22;3.55;;;;;;;21.86;60.74;100461.98;5144596;57;1141131;-66
2022/07/31 21:11:24;;;;;;;14.83;5.00;;;;;;;21.76;61.28;100463.66;5134548;57;1141135;-65
2022/07/31 21:16:30;;;;;;;40.08;12.50;;;;;;;21.64;61.91;100456.30;5125841;56;1141106;-65
2022/07/31 21:21:36;;;;;;;22.17;9.65;;;;;;;21.48;62.13;100447.97;5178105;56;1143149;-64
2022/07/31 21:26:44;;;;;;;17.85;5.72;;;;;;;21.31;62.42;100451.41;5190712;56;1141364;-65
2022/07/31 21:31:50;;;;;;;6.62;3.70;;;;;;;21.08;62.93;100447.47;5125219;56;1141063;-66
2022/07/31 21:36:56;;;;;;;5.85;3.33;;;;;;;20.90;63.44;100450.27;5071632;57;1139042;-65
2022/07/31 21:42:03;;;;;;;3.37;2.65;;;;;;;20.83;63.80;100447.48;5041444;58;1139105;-64
2022/07/31 21:47:14;;;;;;;3.30;2.62;;;;;;;20.75;64.06;100443.56;5123121;57;1139088;-64
2022/07/31 21:52:20;;;;;;;4.33;2.58;;;;;;;20.64;64.67;100449.38;5132255;56;1139019;-65
2022/07/31 21:57:26;;;;;;;4.00;2.83;;;;;;;20.65;65.18;100453.23;5054045;58;1139044;-64
2022/07/31 22:02:32;;;;;;;3.70;2.50;;;;;;;20.61;65.41;100449.27;5146799;56;1139040;-66
2022/07/31 22:07:44;;;;;;;6.72;2.67;;;;;;;20.57;65.58;100449.31;5121805;57;1139076;-64
2022/07/31 22:12:51;;;;;;;4.62;3.00;;;;;;;20.53;65.91;100450.69;5136091;57;1139091;-65
2022/07/31 22:17:57;;;;;;;10.56;4.18;;;;;;;20.47;66.52;100448.73;5123548;57;1139071;-64
2022/07/31 22:23:03;;;;;;;4.85;3.47;;;;;;;20.40;66.62;100451.02;5140813;57;1141102;-64
2022/07/31 22:28:09;;;;;;;6.62;3.08;;;;;;;20.36;67.10;100447.85;5133239;57;1139107;-65
2022/07/31 22:33:15;;;;;;;5.85;3.62;;;;;;;20.30;67.14;100451.27;5092065;57;1138995;-66
2022/07/31 22:38:26;;;;;;;5.22;2.65;;;;;;;20.14;67.30;100448.23;5046878;58;1139371;-64
2022/07/31 22:43:31;;;;;;;6.62;2.70;;;;;;;20.02;67.44;100441.61;5139081;56;1139054;-64
2022/07/31 22:48:39;;;;;;;8.70;3.22;;;;;;;19.90;67.72;100443.06;5210622;56;1139061;-64
2022/07/31 22:53:45;;;;;;;11.88;5.53;;;;;;;19.77;68.03;100445.53;5210251;56;1139064;-64
2022/07/31 22:58:51;;;;;;;9.38;4.85;;;;;;;19.65;68.18;100434.39;5210347;56;1139052;-64
2022/07/31 23:03:57;;;;;;;4.47;2.77;;;;;;;19.50;68.97;100436.19;5207010;56;1136933;-64
2022/07/31 23:09:03;;;;;;;3.20;1.92;;;;;;;19.32;69.73;100423.02;5212982;56;1136943;-64
2022/07/31 23:14:10;;;;;;;2.33;1.72;;;;;;;19.13;69.92;100422.13;5227531;56;1136904;-64
2022/07/31 23:19:16;;;;;;;2.35;1.60;;;;;;;18.88;71.45;100414.23;5227994;56;1137134;-65